Cincinnati, Ohio
Current Conditions -  °F | °C
As of 4:53 AM on Tuesday 27 Jan 2015 (Local Time) from KLUK Reporting Station
Overcast Overcast  
Wind Chill: -10°   Ceiling: 2800
Heat Index: -7°   Visibility: 8mi
Dew Point: -9°   Wind: 5mph
Humidity: 81%   Direction: 50°NE
Pressure: 29.97"   Gusts: NA
Location:  39.11°N, 84.5°W
Report Text: KLUK 270953Z AUTO 05004KT 8SM OVC028 M07/M09 A2997 RMK AO2 SNB02E36 SLP153 P0000 T10671094
Loading
Personal Weather Stations






























Interactive Weather Map New forecast layout! Learn more

10-Day Weather Forecast

Advertisements
Track Severe Weather on mobile